createdAt,value
2019-05-13T00:00:55.417Z,99.90
2019-05-13T00:03:25.004Z,99.90
2019-05-13T00:05:54.476Z,99.90
2019-05-13T00:08:24.854Z,99.90
2019-05-13T00:10:54.650Z,99.90
2019-05-13T00:13:24.130Z,99.90
2019-05-13T00:15:54.370Z,99.90
2019-05-13T00:18:24.073Z,99.90
2019-05-13T00:20:54.185Z,99.90
2019-05-13T00:23:23.943Z,99.90
2019-05-13T00:25:54.592Z,99.90
2019-05-13T00:28:24.169Z,99.90
2019-05-13T00:30:54.262Z,99.90
2019-05-13T00:33:24.458Z,99.90
2019-05-13T00:35:54.079Z,99.90
2019-05-13T00:38:24.521Z,99.90
2019-05-13T00:40:54.706Z,99.90
2019-05-13T00:43:24.631Z,99.90
2019-05-13T00:45:54.246Z,99.90
2019-05-13T00:48:23.709Z,99.90
2019-05-13T00:50:54.498Z,99.90
2019-05-13T00:53:24.081Z,99.90
2019-05-13T00:55:53.785Z,99.90
2019-05-13T00:58:24.392Z,99.90
2019-05-13T01:00:54.686Z,99.90
2019-05-13T01:03:28.110Z,99.90
2019-05-13T01:05:55.549Z,99.90
2019-05-13T01:08:25.595Z,99.90
2019-05-13T01:10:55.107Z,99.90
2019-05-13T01:13:24.577Z,99.90
2019-05-13T01:15:54.511Z,99.90
2019-05-13T01:18:24.124Z,99.90
2019-05-13T01:20:53.948Z,99.90
2019-05-13T01:23:24.168Z,99.90
2019-05-13T01:25:54.462Z,99.90
2019-05-13T01:28:24.454Z,99.90
2019-05-13T01:30:54.116Z,99.90
2019-05-13T01:33:23.798Z,99.90
2019-05-13T01:35:53.957Z,99.90
2019-05-13T01:38:24.064Z,99.90
2019-05-13T01:40:54.148Z,99.90
2019-05-13T01:43:24.548Z,99.90
2019-05-13T01:45:54.217Z,99.90
2019-05-13T01:48:24.193Z,99.90
2019-05-13T01:50:53.813Z,99.90
2019-05-13T01:53:24.413Z,99.90
2019-05-13T01:55:54.052Z,99.90
2019-05-13T01:58:23.793Z,99.90
2019-05-13T02:00:55.285Z,99.90
2019-05-13T02:03:24.862Z,99.90
2019-05-13T02:05:54.585Z,99.90
2019-05-13T02:08:24.726Z,99.90
2019-05-13T02:10:58.000Z,99.90
2019-05-13T02:13:27.463Z,99.90
2019-05-13T02:15:56.921Z,99.90
2019-05-13T02:18:26.407Z,99.90
2019-05-13T02:20:56.211Z,99.90
2019-05-13T02:23:27.672Z,99.90
2019-05-13T02:25:57.151Z,99.90
2019-05-13T02:28:26.530Z,99.90
2019-05-13T02:30:57.007Z,99.90
2019-05-13T02:33:26.677Z,99.90
2019-05-13T02:35:56.138Z,99.90
2019-05-13T02:38:30.365Z,99.90
2019-05-13T02:40:56.806Z,99.90
2019-05-13T02:43:26.259Z,99.90
2019-05-13T02:45:55.750Z,99.90
2019-05-13T02:48:25.220Z,99.90
2019-05-13T02:50:54.925Z,99.90
2019-05-13T02:53:24.788Z,99.90
2019-05-13T02:55:54.739Z,99.90
2019-05-13T02:58:25.464Z,99.90
2019-05-13T03:00:55.272Z,99.90
2019-05-13T03:03:24.745Z,99.90
2019-05-13T03:05:54.448Z,99.90
2019-05-13T03:08:39.121Z,99.90
2019-05-13T03:10:55.095Z,99.90
2019-05-13T03:13:24.569Z,99.90
2019-05-13T03:16:02.772Z,99.90
2019-05-13T03:18:33.654Z,99.90
2019-05-13T03:21:04.409Z,99.90
2019-05-13T03:23:34.116Z,99.90
2019-05-13T03:26:03.577Z,99.90
2019-05-13T03:28:33.987Z,99.90
2019-05-13T03:31:06.775Z,99.90
2019-05-13T03:33:37.407Z,99.90
2019-05-13T03:36:08.056Z,99.90
2019-05-13T03:38:58.137Z,99.90
2019-05-13T03:41:12.125Z,99.90
2019-05-13T03:43:43.023Z,99.90
2019-05-13T03:46:13.356Z,99.90
2019-05-13T03:48:43.237Z,99.90
2019-05-13T03:51:13.719Z,99.90
2019-05-13T03:53:43.707Z,99.90
2019-05-13T03:56:13.498Z,99.90
2019-05-13T03:58:43.711Z,99.90
2019-05-13T04:01:13.733Z,99.90
2019-05-13T04:03:44.195Z,99.90
2019-05-13T04:06:14.411Z,99.90
2019-05-13T04:08:44.444Z,99.90
2019-05-13T04:11:13.917Z,99.90
2019-05-13T04:13:43.599Z,99.90
2019-05-13T04:16:13.547Z,99.90
2019-05-13T04:18:43.477Z,99.90
2019-05-13T04:21:13.624Z,99.90
2019-05-13T04:23:43.411Z,99.90
2019-05-13T04:26:14.816Z,99.90
2019-05-13T04:28:44.259Z,99.90
2019-05-13T04:31:14.576Z,99.90
2019-05-13T04:33:44.454Z,99.90
2019-05-13T04:36:14.129Z,99.90
2019-05-13T04:38:44.698Z,99.90
2019-05-13T04:41:14.519Z,99.90
2019-05-13T04:43:44.327Z,99.90
2019-05-13T04:46:14.686Z,99.90
2019-05-13T04:48:44.699Z,99.90
2019-05-13T04:51:14.499Z,99.90
2019-05-13T04:53:44.206Z,99.90
2019-05-13T04:56:14.241Z,99.90
2019-05-13T04:58:44.156Z,99.90
2019-05-13T05:01:52.147Z,99.90
2019-05-13T05:04:30.599Z,99.90
2019-05-13T05:07:13.897Z,99.90
2019-05-13T05:10:17.685Z,99.90
2019-05-13T05:13:02.170Z,99.90
2019-05-13T05:15:52.466Z,99.90
2019-05-13T05:18:52.629Z,99.90
2019-05-13T05:21:41.608Z,99.90
2019-05-13T05:24:51.894Z,99.90
2019-05-13T05:27:51.425Z,99.90
2019-05-13T05:30:55.745Z,99.90
2019-05-13T05:33:48.011Z,99.90
2019-05-13T05:36:53.662Z,99.90
2019-05-13T05:39:25.782Z,99.90
2019-05-13T05:41:57.099Z,99.90
2019-05-13T05:44:32.121Z,99.90
2019-05-13T05:47:02.695Z,99.90
2019-05-13T05:49:32.398Z,99.90
2019-05-13T05:52:08.149Z,99.90
2019-05-13T05:54:39.150Z,99.90
2019-05-13T05:57:09.005Z,99.90
2019-05-13T05:59:38.707Z,99.90
2019-05-13T06:02:08.681Z,99.90
2019-05-13T06:04:38.158Z,99.90
2019-05-13T06:07:07.651Z,99.90
2019-05-13T06:09:37.114Z,99.90
2019-05-13T06:12:06.547Z,99.90
2019-05-13T06:14:36.034Z,99.90
2019-05-13T06:17:05.589Z,99.90
2019-05-13T06:19:35.018Z,99.90
2019-05-13T06:22:04.555Z,99.90
2019-05-13T06:24:34.025Z,99.90
2019-05-13T06:27:03.532Z,99.90
2019-05-13T06:29:32.929Z,99.90
2019-05-13T06:32:18.159Z,99.90
2019-05-13T06:34:33.677Z,99.90
2019-05-13T06:37:03.160Z,99.90
2019-05-13T06:39:32.644Z,99.90
2019-05-13T06:42:03.002Z,99.90
2019-05-13T06:44:32.453Z,99.90
2019-05-13T06:47:02.799Z,99.90
2019-05-13T06:49:32.749Z,99.90
2019-05-13T06:52:02.392Z,99.90
2019-05-13T06:54:33.109Z,99.90
2019-05-13T06:57:05.168Z,99.90
2019-05-13T06:59:34.275Z,99.90
2019-05-13T07:02:03.736Z,99.90
2019-05-13T07:04:33.220Z,99.90
2019-05-13T07:07:12.453Z,99.90
2019-05-13T07:09:33.898Z,99.90
2019-05-13T07:12:03.701Z,99.90
2019-05-13T07:14:33.338Z,99.90
2019-05-13T07:17:02.736Z,99.90
2019-05-13T07:19:32.607Z,99.90
2019-05-13T07:22:02.979Z,99.90
2019-05-13T07:24:32.982Z,99.90
2019-05-13T07:27:02.480Z,99.90
2019-05-13T07:29:32.718Z,99.90
2019-05-13T07:32:02.361Z,99.90
2019-05-13T07:34:33.734Z,99.90
2019-05-13T07:37:03.460Z,99.90
2019-05-13T07:39:33.139Z,99.90
2019-05-13T07:42:05.361Z,99.90
2019-05-13T07:44:33.670Z,99.90
2019-05-13T07:47:03.877Z,99.90
2019-05-13T07:49:33.650Z,99.90
2019-05-13T07:52:03.216Z,99.90
2019-05-13T07:54:33.262Z,99.90
2019-05-13T07:57:03.048Z,99.90
2019-05-13T07:59:32.509Z,99.90
2019-05-13T08:02:02.668Z,99.90
2019-05-13T08:04:33.355Z,99.90
2019-05-13T08:07:03.387Z,99.90
2019-05-13T08:09:32.878Z,99.90
2019-05-13T08:12:09.973Z,99.90
2019-05-13T08:14:34.109Z,99.90
2019-05-13T08:17:03.579Z,99.90
2019-05-13T08:19:33.182Z,99.90
2019-05-13T08:22:02.719Z,99.90
2019-05-13T08:24:32.193Z,99.90
2019-05-13T08:27:02.439Z,99.90
2019-05-13T08:29:32.998Z,99.90
2019-05-13T08:32:03.220Z,99.90
2019-05-13T08:34:33.283Z,99.90
2019-05-13T08:37:03.360Z,99.90
2019-05-13T08:39:38.100Z,99.90
2019-05-13T08:42:15.261Z,99.90
2019-05-13T08:44:35.707Z,99.90
2019-05-13T08:47:05.170Z,99.90
2019-05-13T08:49:34.656Z,99.90
2019-05-13T08:52:04.120Z,99.90
2019-05-13T08:54:33.584Z,99.90
2019-05-13T08:57:03.414Z,99.90
2019-05-13T08:59:33.176Z,99.90
2019-05-13T09:02:03.370Z,99.90
2019-05-13T09:04:33.046Z,99.90
2019-05-13T09:07:03.220Z,99.90
2019-05-13T09:09:32.884Z,99.90
2019-05-13T09:12:02.830Z,99.90
2019-05-13T09:14:32.709Z,99.90
2019-05-13T09:17:02.510Z,99.90
2019-05-13T09:19:32.557Z,99.90
2019-05-13T09:22:03.382Z,99.90
2019-05-13T09:24:37.531Z,99.90
2019-05-13T09:27:04.364Z,99.90
2019-05-13T09:29:33.836Z,99.90
2019-05-13T09:32:04.065Z,99.90
2019-05-13T09:34:33.749Z,99.90
2019-05-13T09:37:03.340Z,99.90
2019-05-13T09:39:32.870Z,99.90
2019-05-13T09:42:03.177Z,99.90
2019-05-13T09:44:33.227Z,99.90
2019-05-13T09:47:02.984Z,99.90
2019-05-13T09:49:33.194Z,99.90
2019-05-13T09:52:03.009Z,99.90
2019-05-13T09:54:33.275Z,99.90
2019-05-13T09:57:02.950Z,99.90
2019-05-13T09:59:32.430Z,99.90
2019-05-13T10:04:33.120Z,99.90
2019-05-13T10:07:02.805Z,99.90
2019-05-13T10:09:33.082Z,99.90
2019-05-13T10:12:03.460Z,99.90
2019-05-13T10:14:33.431Z,99.90
2019-05-13T10:17:05.985Z,99.90
2019-05-13T10:19:34.316Z,99.90
2019-05-13T10:22:03.907Z,99.90
2019-05-13T10:24:33.496Z,99.90
2019-05-13T10:27:02.892Z,99.90
2019-05-13T10:29:32.434Z,99.90
2019-05-13T10:32:03.334Z,99.90
2019-05-13T10:34:33.918Z,99.90
2019-05-13T10:37:03.387Z,99.90
2019-05-13T10:39:32.867Z,99.90
2019-05-13T10:42:03.697Z,99.90
2019-05-13T10:44:33.440Z,99.90
2019-05-13T10:47:02.917Z,99.90
2019-05-13T10:49:33.238Z,99.90
2019-05-13T10:52:03.345Z,99.90
2019-05-13T10:54:32.989Z,99.90
2019-05-13T10:57:03.935Z,99.90
2019-05-13T10:59:33.786Z,99.90
2019-05-13T11:02:03.249Z,99.90
2019-05-13T11:04:32.929Z,99.90
2019-05-13T11:07:03.212Z,99.90
2019-05-13T11:09:32.951Z,99.90
2019-05-13T11:12:03.231Z,99.90
2019-05-13T11:14:32.760Z,99.90
2019-05-13T11:17:02.228Z,99.90
2019-05-13T11:19:36.641Z,99.90
2019-05-13T11:22:03.109Z,99.90
2019-05-13T11:24:32.774Z,99.90
2019-05-13T11:27:02.951Z,99.90
2019-05-13T11:29:32.812Z,99.90
2019-05-13T11:32:02.994Z,99.90
2019-05-13T11:34:33.104Z,99.90
2019-05-13T11:37:03.595Z,99.90
2019-05-13T11:39:33.441Z,99.90
2019-05-13T11:42:02.758Z,99.90
2019-05-13T11:44:32.521Z,99.90
2019-05-13T11:47:02.869Z,99.90
2019-05-13T11:49:32.804Z,99.90
2019-05-13T11:52:02.805Z,99.90
2019-05-13T11:54:32.719Z,99.90
2019-05-13T11:57:06.126Z,99.90
2019-05-13T11:59:33.406Z,99.90
2019-05-13T12:02:04.382Z,99.90
2019-05-13T12:04:34.899Z,99.90
2019-05-13T12:07:04.634Z,99.90
2019-05-13T12:09:34.091Z,99.90
2019-05-13T12:12:03.715Z,99.90
2019-05-13T12:17:04.364Z,99.90
2019-05-13T12:19:33.845Z,99.90
2019-05-13T12:22:03.389Z,99.90
2019-05-13T12:24:32.858Z,99.90
2019-05-13T12:27:03.657Z,99.90
2019-05-13T12:29:33.507Z,99.90
2019-05-13T12:32:03.435Z,99.90
2019-05-13T12:34:40.565Z,99.90
2019-05-13T12:37:04.565Z,99.90
2019-05-13T12:39:34.159Z,99.90
2019-05-13T12:42:03.783Z,99.90
2019-05-13T12:44:33.674Z,99.90
2019-05-13T12:47:03.527Z,99.90
2019-05-13T12:49:36.472Z,99.90
2019-05-13T12:52:04.907Z,99.90
2019-05-13T12:54:34.568Z,99.90
2019-05-13T12:57:04.070Z,99.90
2019-05-13T12:59:35.244Z,99.90
2019-05-13T13:02:04.768Z,99.90
2019-05-13T13:04:34.282Z,99.90
2019-05-13T13:07:04.140Z,99.90
2019-05-13T13:09:33.872Z,99.90
2019-05-13T13:12:03.511Z,99.90
2019-05-13T13:14:38.431Z,99.90
2019-05-13T13:17:04.564Z,99.90
2019-05-13T13:19:34.349Z,99.90
2019-05-13T13:22:07.646Z,99.90
2019-05-13T13:24:35.184Z,99.90
2019-05-13T13:27:05.035Z,99.90
2019-05-13T13:29:34.457Z,99.90
2019-05-13T13:32:03.915Z,99.90
2019-05-13T13:34:33.919Z,99.90
2019-05-13T13:37:05.001Z,99.90
2019-05-13T13:39:34.707Z,99.90
2019-05-13T13:42:05.889Z,99.90
2019-05-13T13:44:35.446Z,99.90
2019-05-13T13:47:04.909Z,99.90
2019-05-13T13:49:35.320Z,99.90
2019-05-13T13:52:05.035Z,99.90
2019-05-13T13:54:34.787Z,99.90
2019-05-13T13:57:04.269Z,99.90
2019-05-13T13:59:35.908Z,99.90
2019-05-13T14:02:05.679Z,99.90
2019-05-13T14:04:35.445Z,99.90
2019-05-13T14:07:00.737Z,99.90
2019-05-13T14:07:02.851Z,99.90
2019-05-13T14:09:36.068Z,99.90
2019-05-13T14:12:06.428Z,99.90
2019-05-13T14:14:35.999Z,99.90
2019-05-13T14:17:05.496Z,99.90
2019-05-13T14:19:34.965Z,99.90
2019-05-13T14:22:04.462Z,99.90
2019-05-13T14:24:33.805Z,99.90
2019-05-13T14:27:03.283Z,99.90
2019-05-13T14:29:40.675Z,99.90
2019-05-13T14:32:03.987Z,99.90
2019-05-13T14:34:33.461Z,99.90
2019-05-13T14:37:02.897Z,99.90
2019-05-13T14:39:35.840Z,99.90
2019-05-13T14:42:03.482Z,99.90
2019-05-13T14:44:32.980Z,99.90
2019-05-13T14:47:02.453Z,99.90
2019-05-13T14:49:31.951Z,99.90
2019-05-13T14:52:01.572Z,99.90
2019-05-13T14:54:31.340Z,99.90
2019-05-13T14:57:02.332Z,99.90
2019-05-13T14:59:32.058Z,99.90
2019-05-13T15:02:01.736Z,99.90
2019-05-13T15:04:32.530Z,99.90
2019-05-13T15:07:02.436Z,99.90
2019-05-13T15:09:32.176Z,99.90
2019-05-13T15:12:02.237Z,99.90
2019-05-13T15:14:32.060Z,99.90
2019-05-13T15:17:06.290Z,99.90
2019-05-13T15:19:32.827Z,99.90
2019-05-13T15:22:03.045Z,99.90
2019-05-13T15:24:32.650Z,99.90
2019-05-13T15:27:02.125Z,99.90
2019-05-13T15:29:31.627Z,99.90
2019-05-13T15:32:02.091Z,99.90
2019-05-13T15:34:31.969Z,99.90
2019-05-13T15:37:02.163Z,99.90
2019-05-13T15:39:31.908Z,99.90
2019-05-13T15:42:02.185Z,99.90
2019-05-13T15:44:32.662Z,99.90
2019-05-13T15:47:12.077Z,99.90
2019-05-13T15:49:33.626Z,99.90
2019-05-13T15:52:03.149Z,99.90
2019-05-13T15:54:32.889Z,99.90
2019-05-13T15:57:02.583Z,99.90
2019-05-13T15:59:32.137Z,99.90
2019-05-13T16:02:02.284Z,99.90
2019-05-13T16:04:32.297Z,99.90
2019-05-13T16:07:01.905Z,99.90
2019-05-13T16:09:31.615Z,99.90
2019-05-13T16:12:01.681Z,99.90
2019-05-13T16:14:31.755Z,99.90
2019-05-13T16:17:01.320Z,99.90
2019-05-13T16:19:32.583Z,99.90
2019-05-13T16:22:02.439Z,99.90
2019-05-13T16:24:32.275Z,99.90
2019-05-13T16:27:02.735Z,99.90
2019-05-13T16:29:32.445Z,99.90
2019-05-13T16:32:02.282Z,99.90
2019-05-13T16:34:32.066Z,99.90
2019-05-13T16:37:02.407Z,99.90
2019-05-13T16:39:32.224Z,99.90
2019-05-13T16:42:01.748Z,99.90
2019-05-13T16:44:32.077Z,99.90
2019-05-13T16:47:02.228Z,99.90
2019-05-13T16:49:31.994Z,99.90
2019-05-13T16:52:02.632Z,99.90
2019-05-13T16:54:32.994Z,99.90
2019-05-13T16:57:02.661Z,99.90
2019-05-13T16:59:32.271Z,99.90
2019-05-13T17:02:02.087Z,99.90
2019-05-13T17:04:32.223Z,99.90
2019-05-13T17:07:02.040Z,99.90
2019-05-13T17:09:32.377Z,99.90
2019-05-13T17:12:02.163Z,99.90
2019-05-13T17:14:32.242Z,99.90
2019-05-13T17:17:02.055Z,99.90
2019-05-13T17:19:31.892Z,99.90
2019-05-13T17:22:02.526Z,99.90
2019-05-13T17:24:32.261Z,99.90
2019-05-13T17:27:02.739Z,99.90
2019-05-13T17:29:32.427Z,99.90
2019-05-13T17:32:02.349Z,99.90
2019-05-13T17:34:32.286Z,99.90
2019-05-13T17:37:02.634Z,99.90
2019-05-13T17:39:32.540Z,99.90
2019-05-13T17:42:02.030Z,99.90
2019-05-13T17:44:31.979Z,99.90
2019-05-13T17:47:02.140Z,99.90
2019-05-13T17:49:32.126Z,99.90
2019-05-13T17:52:02.390Z,99.90
2019-05-13T17:54:32.307Z,99.90
2019-05-13T17:57:02.137Z,99.90
2019-05-13T17:59:31.837Z,99.90
2019-05-13T18:02:02.615Z,99.90
2019-05-13T18:04:32.452Z,99.90
2019-05-13T18:07:01.973Z,99.90
2019-05-13T18:09:32.019Z,99.90
2019-05-13T18:12:02.403Z,99.90
2019-05-13T18:14:32.168Z,99.90
2019-05-13T18:17:12.515Z,99.90
2019-05-13T18:19:42.355Z,99.90
2019-05-13T18:22:11.835Z,99.90
2019-05-13T18:24:41.632Z,99.90
2019-05-13T18:27:12.234Z,99.90
2019-05-13T18:29:42.145Z,99.90
2019-05-13T18:32:12.330Z,99.90
2019-05-13T18:34:42.123Z,99.90
2019-05-13T18:37:12.078Z,99.90
2019-05-13T18:39:41.769Z,99.90
2019-05-13T18:42:11.792Z,99.90
2019-05-13T18:44:42.181Z,99.90
2019-05-13T18:47:12.465Z,99.90
2019-05-13T18:49:42.443Z,99.90
2019-05-13T18:52:12.495Z,99.90
2019-05-13T18:54:42.306Z,99.90
2019-05-13T18:57:12.431Z,99.90
2019-05-13T18:59:42.160Z,99.90
2019-05-13T19:02:12.399Z,99.90
2019-05-13T19:04:42.025Z,99.90
2019-05-13T19:07:12.062Z,99.90
2019-05-13T19:09:41.853Z,99.90
2019-05-13T19:12:12.201Z,99.90
2019-05-13T19:14:41.759Z,99.90
2019-05-13T19:17:12.483Z,99.90
2019-05-13T19:19:42.263Z,99.90
2019-05-13T19:22:12.292Z,99.90
2019-05-13T19:24:42.015Z,99.90
2019-05-13T19:27:12.068Z,99.90
2019-05-13T19:29:42.516Z,99.90
2019-05-13T19:32:12.610Z,99.90
2019-05-13T19:34:42.589Z,99.90
2019-05-13T19:37:12.237Z,99.90
2019-05-13T19:39:41.726Z,99.90
2019-05-13T19:42:11.654Z,99.90
2019-05-13T19:44:42.036Z,99.90
2019-05-13T19:47:12.382Z,99.90
2019-05-13T19:49:46.267Z,99.90
2019-05-13T19:52:13.362Z,99.90
2019-05-13T19:54:42.837Z,99.90
2019-05-13T19:57:12.349Z,99.90
2019-05-13T19:59:42.714Z,99.90
2019-05-13T20:02:12.496Z,99.90
2019-05-13T20:04:42.267Z,99.90
2019-05-13T20:07:12.081Z,99.90
2019-05-13T20:09:42.535Z,99.90
2019-05-13T20:12:15.531Z,99.90
2019-05-13T20:14:43.609Z,99.90
2019-05-13T20:17:13.591Z,99.90
2019-05-13T20:19:50.379Z,99.90
2019-05-13T20:22:14.279Z,99.90
2019-05-13T20:24:43.751Z,99.90
2019-05-13T20:27:13.197Z,99.90
2019-05-13T20:29:42.657Z,99.90
2019-05-13T20:32:12.142Z,99.90
2019-05-13T20:34:41.639Z,99.90
2019-05-13T20:37:12.456Z,99.90
2019-05-13T20:39:42.579Z,99.90
2019-05-13T20:42:12.601Z,99.90
2019-05-13T20:44:42.216Z,99.90
2019-05-13T20:47:11.686Z,99.90
2019-05-13T20:49:41.729Z,99.90
2019-05-13T20:52:14.983Z,99.90
2019-05-13T20:54:42.669Z,99.90
2019-05-13T20:57:12.075Z,99.90
2019-05-13T20:59:41.614Z,99.90
2019-05-13T21:02:12.417Z,99.90
2019-05-13T21:04:42.208Z,99.90
2019-05-13T21:07:11.673Z,99.90
2019-05-13T21:09:42.341Z,99.90
2019-05-13T21:12:12.179Z,99.90
2019-05-13T21:14:41.841Z,99.90
2019-05-13T21:17:12.197Z,99.90
2019-05-13T21:19:42.922Z,99.90
2019-05-13T21:22:12.628Z,99.90
2019-05-13T21:24:42.123Z,99.90
2019-05-13T21:27:12.045Z,99.90
2019-05-13T21:29:41.746Z,99.90
2019-05-13T21:32:11.757Z,99.90
2019-05-13T21:34:41.456Z,99.90
2019-05-13T21:37:11.534Z,99.90
2019-05-13T21:39:41.413Z,99.90
2019-05-13T21:42:11.563Z,99.90
2019-05-13T21:44:42.002Z,99.90
2019-05-13T21:47:11.723Z,99.90
2019-05-13T21:49:42.337Z,99.90
2019-05-13T21:52:12.241Z,99.90
2019-05-13T21:54:42.283Z,99.90
2019-05-13T21:57:11.787Z,99.90
2019-05-13T21:59:41.504Z,99.90
2019-05-13T22:02:11.466Z,99.90
2019-05-13T22:04:41.295Z,99.90
2019-05-13T22:07:12.138Z,99.90
2019-05-13T22:09:42.358Z,99.90
2019-05-13T22:12:11.985Z,99.90
2019-05-13T22:14:41.431Z,99.60
2019-05-13T22:17:12.337Z,99.40
2019-05-13T22:19:42.125Z,99.70
2019-05-13T22:22:11.766Z,99.30
2019-05-13T22:24:41.873Z,98.90
2019-05-13T22:27:13.284Z,99.10
2019-05-13T22:29:42.912Z,99.10
2019-05-13T22:32:12.414Z,98.60
2019-05-13T22:34:42.069Z,99.10
2019-05-13T22:37:11.839Z,98.80
2019-05-13T22:39:42.138Z,98.50
2019-05-13T22:42:12.487Z,98.60
2019-05-13T22:44:42.166Z,98.60
2019-05-13T22:47:13.379Z,98.50
2019-05-13T22:49:42.799Z,98.40
2019-05-13T22:52:12.561Z,98.50
2019-05-13T22:54:42.073Z,98.70
2019-05-13T22:57:12.052Z,98.40
2019-05-13T22:59:41.790Z,98.50
2019-05-13T23:02:11.346Z,98.40
2019-05-13T23:04:41.874Z,98.20
2019-05-13T23:07:13.457Z,98.00
2019-05-13T23:09:42.963Z,98.00
2019-05-13T23:12:12.497Z,97.80
2019-05-13T23:14:42.022Z,98.00
2019-05-13T23:17:12.477Z,98.00
2019-05-13T23:19:42.268Z,98.50
2019-05-13T23:22:12.190Z,98.10
2019-05-13T23:24:42.210Z,98.20
2019-05-13T23:27:11.667Z,97.50
2019-05-13T23:29:41.397Z,97.70
2019-05-13T23:32:12.023Z,97.30
2019-05-13T23:34:42.231Z,96.70
2019-05-13T23:37:12.008Z,97.00
2019-05-13T23:39:41.836Z,96.90
2019-05-13T23:42:12.341Z,96.30
2019-05-13T23:44:41.964Z,95.70
2019-05-13T23:47:11.738Z,95.70
2019-05-13T23:49:42.243Z,95.60
2019-05-13T23:52:12.044Z,95.50
2019-05-13T23:54:42.526Z,95.20
2019-05-13T23:57:12.122Z,95.50
2019-05-13T23:59:42.134Z,95.50
